createdAt,value
2023-02-08T00:01:53.508Z,82.34
2023-02-08T00:04:20.210Z,82.19
2023-02-08T00:09:52.420Z,82.42
2023-02-08T00:12:33.854Z,82.62
2023-02-08T00:15:00.600Z,82.50
2023-02-08T00:17:30.415Z,82.84
2023-02-08T00:20:22.901Z,82.53
2023-02-08T00:22:58.030Z,82.63
2023-02-08T00:25:24.688Z,83.07
2023-02-08T00:27:51.574Z,82.70
2023-02-08T00:30:26.744Z,83.21
2023-02-08T00:32:53.599Z,82.97
2023-02-08T00:35:20.228Z,83.45
2023-02-08T00:37:46.892Z,83.41
2023-02-08T00:40:13.841Z,83.14
2023-02-08T00:43:21.533Z,83.16
2023-02-08T00:45:48.170Z,83.02
2023-02-08T00:48:14.734Z,83.67
2023-02-08T00:50:41.747Z,82.98
2023-02-08T00:53:08.398Z,83.46
2023-02-08T00:55:34.929Z,83.71
2023-02-08T00:58:27.094Z,83.84
2023-02-08T01:01:07.308Z,83.39
2023-02-08T01:03:39.520Z,83.41
2023-02-08T01:06:20.611Z,83.83
2023-02-08T01:08:47.266Z,83.90
2023-02-08T01:11:40.748Z,83.92
2023-02-08T01:16:48.023Z,83.93
2023-02-08T01:19:15.015Z,84.21
2023-02-08T01:22:06.709Z,83.62
2023-02-08T01:24:35.740Z,83.90
2023-02-08T01:27:06.767Z,84.13
2023-02-08T01:29:33.693Z,83.99
2023-02-08T01:32:03.346Z,84.05
2023-02-08T01:34:29.969Z,84.38
2023-02-08T01:37:21.499Z,84.28
2023-02-08T01:39:53.677Z,84.47
2023-02-08T01:42:21.646Z,84.66
2023-02-08T01:45:16.431Z,84.32
2023-02-08T01:47:47.172Z,84.93
2023-02-08T01:50:14.634Z,84.53
2023-02-08T01:52:43.676Z,84.46
2023-02-08T01:55:58.000Z,84.69
2023-02-08T01:58:27.439Z,85.00
2023-02-08T02:01:08.871Z,85.01
2023-02-08T02:03:35.694Z,84.47
2023-02-08T02:06:09.513Z,84.69
2023-02-08T02:08:55.009Z,84.77
2023-02-08T02:11:21.652Z,84.92
2023-02-08T02:13:51.089Z,84.81
2023-02-08T02:18:59.101Z,85.40
2023-02-08T02:21:40.778Z,85.06
2023-02-08T02:24:46.219Z,85.10
2023-02-08T02:27:40.568Z,84.93
2023-02-08T02:30:34.204Z,85.04
2023-02-08T02:33:45.513Z,84.70
2023-02-08T02:36:33.166Z,84.77
2023-02-08T02:39:23.687Z,84.64
2023-02-08T02:42:43.001Z,85.05
2023-02-08T02:45:40.521Z,84.79
2023-02-08T02:48:18.171Z,85.03
2023-02-08T02:51:09.576Z,84.92
2023-02-08T02:53:54.440Z,84.69
2023-02-08T02:57:06.017Z,85.18
2023-02-08T02:59:33.882Z,84.70
2023-02-08T03:02:01.837Z,85.13
2023-02-08T03:04:48.412Z,85.02
2023-02-08T03:10:31.527Z,84.99
2023-02-08T03:13:09.530Z,85.08
2023-02-08T03:16:26.113Z,85.08
2023-02-08T03:19:07.785Z,85.03
2023-02-08T03:22:19.768Z,84.98
2023-02-08T03:24:59.345Z,84.98
2023-02-08T03:27:40.272Z,85.21
2023-02-08T03:30:15.818Z,85.26
2023-02-08T03:32:54.631Z,85.06
2023-02-08T03:36:07.886Z,85.02
2023-02-08T03:38:44.550Z,85.51
2023-02-08T03:41:15.330Z,85.17
2023-02-08T03:43:55.479Z,85.48
2023-02-08T03:46:27.919Z,85.25
2023-02-08T03:49:12.340Z,85.40
2023-02-08T03:51:40.736Z,85.26
2023-02-08T03:54:28.626Z,85.44
2023-02-08T03:57:07.000Z,85.46
2023-02-08T04:00:20.203Z,85.72
2023-02-08T04:03:15.940Z,85.47
2023-02-08T04:06:05.482Z,85.44
2023-02-08T04:08:30.362Z,85.44
2023-02-08T04:11:22.677Z,85.48
2023-02-08T04:14:01.247Z,85.66
2023-02-08T04:16:27.758Z,85.49
2023-02-08T04:18:54.424Z,85.60
2023-02-08T04:21:21.228Z,85.69
2023-02-08T04:23:57.423Z,85.91
2023-02-08T04:26:24.012Z,85.92
2023-02-08T04:28:50.590Z,85.28
2023-02-08T04:31:17.324Z,85.85
2023-02-08T04:33:55.451Z,85.72
2023-02-08T04:36:22.024Z,85.38
2023-02-08T04:39:03.748Z,85.34
2023-02-08T04:41:30.540Z,85.69
2023-02-08T04:43:57.127Z,85.83
2023-02-08T04:46:48.603Z,85.67
2023-02-08T04:49:32.807Z,85.94
2023-02-08T04:51:59.496Z,85.69
2023-02-08T04:54:26.252Z,85.44
2023-02-08T04:57:04.646Z,85.82
2023-02-08T04:59:31.633Z,85.51
2023-02-08T05:01:58.285Z,85.41
2023-02-08T05:04:25.024Z,85.55
2023-02-08T05:07:00.445Z,85.85
2023-02-08T05:09:27.174Z,85.75
2023-02-08T05:12:01.011Z,85.39
2023-02-08T05:14:27.635Z,85.58
2023-02-08T05:16:55.025Z,85.63
2023-02-08T05:19:21.635Z,85.46
2023-02-08T05:21:48.266Z,85.84
2023-02-08T05:24:23.946Z,85.92
2023-02-08T05:26:50.582Z,85.78
2023-02-08T05:29:23.469Z,85.93
2023-02-08T05:31:50.143Z,85.80
2023-02-08T05:34:25.873Z,85.78
2023-02-08T05:36:52.452Z,85.85
2023-02-08T05:39:18.995Z,85.78
2023-02-08T05:42:10.470Z,85.70
2023-02-08T05:47:17.998Z,85.73
2023-02-08T05:49:44.640Z,85.98
2023-02-08T05:52:11.414Z,85.67
2023-02-08T05:54:45.421Z,85.60
2023-02-08T05:57:39.021Z,85.73
2023-02-08T06:00:06.556Z,85.63
2023-02-08T06:02:42.641Z,85.61
2023-02-08T06:05:09.137Z,85.67
2023-02-08T06:07:35.797Z,85.83
2023-02-08T06:10:03.120Z,85.88
2023-02-08T06:12:32.411Z,86.10
2023-02-08T06:15:05.151Z,85.73
2023-02-08T06:17:32.858Z,85.94
2023-02-08T06:20:11.577Z,85.92
2023-02-08T06:22:38.438Z,86.22
2023-02-08T06:25:11.211Z,86.09
2023-02-08T06:27:37.917Z,85.69
2023-02-08T06:30:13.872Z,86.09
2023-02-08T06:33:05.848Z,86.14
2023-02-08T06:35:38.515Z,86.27
2023-02-08T06:38:46.084Z,86.27
2023-02-08T06:41:12.733Z,86.20
2023-02-08T06:48:04.568Z,86.13
2023-02-08T06:50:34.011Z,85.57
2023-02-08T06:53:00.823Z,85.97
2023-02-08T06:55:32.085Z,86.32
2023-02-08T06:58:00.274Z,86.01
2023-02-08T07:00:32.364Z,86.14
2023-02-08T07:03:00.729Z,86.02
2023-02-08T07:05:27.689Z,85.70
2023-02-08T07:07:57.834Z,86.20
2023-02-08T07:10:24.491Z,85.97
2023-02-08T07:16:41.323Z,86.16
2023-02-08T07:19:14.697Z,86.12
2023-02-08T07:21:41.366Z,86.18
2023-02-08T07:24:07.934Z,85.98
2023-02-08T07:26:34.469Z,86.34
2023-02-08T07:32:11.619Z,86.22
2023-02-08T07:34:40.716Z,86.76
2023-02-08T07:37:09.036Z,86.47
2023-02-08T07:39:37.673Z,86.30
2023-02-08T07:42:08.950Z,86.01
2023-02-08T07:44:46.056Z,86.29
2023-02-08T07:47:12.695Z,86.47
2023-02-08T07:49:43.855Z,85.36
2023-02-08T07:52:10.580Z,84.09
2023-02-08T07:54:54.528Z,82.68
2023-02-08T07:57:22.129Z,80.92
2023-02-08T07:59:49.876Z,79.28
2023-02-08T08:02:16.897Z,77.01
2023-02-08T08:04:43.557Z,74.35
2023-02-08T08:07:10.214Z,73.86
2023-02-08T08:09:37.017Z,70.23
2023-02-08T08:12:09.432Z,66.69
2023-02-08T08:14:47.892Z,64.39
2023-02-08T08:17:18.505Z,60.43
2023-02-08T08:19:48.331Z,59.04
2023-02-08T08:22:19.142Z,57.79
2023-02-08T08:24:45.893Z,56.55
2023-02-08T08:27:14.628Z,55.03
2023-02-08T08:29:43.806Z,53.25
2023-02-08T08:32:11.903Z,52.63
2023-02-08T08:34:41.881Z,51.13
2023-02-08T08:37:12.856Z,51.66
2023-02-08T08:39:46.180Z,48.54
2023-02-08T08:42:17.893Z,48.66
2023-02-08T08:44:46.011Z,46.92
2023-02-08T08:47:15.752Z,47.35
2023-02-08T08:49:43.804Z,44.57
2023-02-08T08:52:12.172Z,46.34
2023-02-08T08:54:39.233Z,46.27
2023-02-08T08:57:06.726Z,46.63
2023-02-08T08:59:58.679Z,47.48
2023-02-08T09:02:28.996Z,46.36
2023-02-08T09:04:55.966Z,47.21
2023-02-08T09:11:14.389Z,45.58
2023-02-08T09:17:52.793Z,45.54
2023-02-08T09:20:22.306Z,43.36
2023-02-08T09:22:53.710Z,43.36
2023-02-08T09:25:43.613Z,43.36
2023-02-08T09:31:34.619Z,41.00
2023-02-08T09:36:42.338Z,42.07
2023-02-08T09:39:24.888Z,42.11
2023-02-08T09:41:57.301Z,40.85
2023-02-08T09:44:33.363Z,40.69
2023-02-08T09:47:06.603Z,39.61
2023-02-08T09:49:58.212Z,39.77
2023-02-08T09:53:01.038Z,40.33
2023-02-08T09:55:38.684Z,39.73
2023-02-08T09:58:31.743Z,38.26
2023-02-08T10:05:03.111Z,38.46
2023-02-08T10:07:34.748Z,36.09
2023-02-08T10:10:48.457Z,37.24
2023-02-08T10:13:41.856Z,37.47
2023-02-08T10:24:11.782Z,34.68
2023-02-08T10:30:18.087Z,35.95
2023-02-08T10:33:12.236Z,35.22
2023-02-08T10:35:44.508Z,34.39
2023-02-08T10:38:20.276Z,33.84
2023-02-08T10:40:58.000Z,34.22
2023-02-08T10:43:43.083Z,32.19
2023-02-08T10:46:55.120Z,33.33
2023-02-08T10:49:42.467Z,33.67
2023-02-08T10:52:59.752Z,33.33
2023-02-08T10:55:51.572Z,32.77
2023-02-08T10:58:27.657Z,31.92
2023-02-08T11:00:55.371Z,30.77
2023-02-08T11:03:25.855Z,31.95
2023-02-08T11:05:53.276Z,31.33
2023-02-08T11:08:25.187Z,31.42
2023-02-08T11:10:58.264Z,30.22
2023-02-08T11:13:34.695Z,30.68
2023-02-08T11:16:23.468Z,29.15
2023-02-08T11:18:53.902Z,28.98
2023-02-08T11:21:39.237Z,29.06
2023-02-08T11:24:28.366Z,29.39
2023-02-08T11:27:40.404Z,28.43
2023-02-08T11:30:29.058Z,29.11
2023-02-08T11:33:15.636Z,28.83
2023-02-08T11:35:42.538Z,29.02
2023-02-08T11:38:19.309Z,28.74
2023-02-08T11:40:46.356Z,28.39
2023-02-08T11:43:28.841Z,28.35
2023-02-08T11:45:58.039Z,26.81
2023-02-08T11:48:36.291Z,27.27
2023-02-08T11:51:03.727Z,26.07
2023-02-08T11:53:37.456Z,25.94
2023-02-08T11:56:05.743Z,27.50
2023-02-08T11:58:32.642Z,25.81
2023-02-08T12:01:10.473Z,26.93
2023-02-08T12:03:44.923Z,26.19
2023-02-08T12:06:40.183Z,26.22
2023-02-08T12:09:28.722Z,27.75
2023-02-08T12:12:30.917Z,27.93
2023-02-08T12:15:13.587Z,26.57
2023-02-08T12:17:48.824Z,24.88
2023-02-08T12:20:32.251Z,26.03
2023-02-08T12:23:11.489Z,26.87
2023-02-08T12:25:42.116Z,27.59
2023-02-08T12:28:14.926Z,27.15
2023-02-08T12:31:06.548Z,27.83
2023-02-08T12:33:58.550Z,27.36
2023-02-08T12:37:14.758Z,26.51
2023-02-08T12:40:16.127Z,26.60
2023-02-08T12:43:13.892Z,28.77
2023-02-08T12:46:24.314Z,26.92
2023-02-08T12:49:32.491Z,29.32
2023-02-08T12:52:38.735Z,29.31
2023-02-08T12:55:18.224Z,30.19
2023-02-08T12:57:54.238Z,29.56
2023-02-08T13:00:27.677Z,29.65
2023-02-08T13:03:14.753Z,29.89
2023-02-08T13:06:01.311Z,30.90
2023-02-08T13:08:50.447Z,31.12
2023-02-08T13:11:41.893Z,30.65
2023-02-08T13:14:35.421Z,31.68
2023-02-08T13:17:20.917Z,31.24
2023-02-08T13:20:25.185Z,32.18
2023-02-08T13:22:56.572Z,31.31
2023-02-08T13:25:36.074Z,32.60
2023-02-08T13:28:06.407Z,32.93
2023-02-08T13:30:40.180Z,33.01
2023-02-08T13:33:19.402Z,33.28
2023-02-08T13:35:51.593Z,32.19
2023-02-08T13:38:28.493Z,32.03
2023-02-08T13:41:04.119Z,32.57
2023-02-08T13:43:56.144Z,32.17
2023-02-08T13:46:26.027Z,32.81
2023-02-08T13:48:57.949Z,32.72
2023-02-08T13:51:33.660Z,32.63
2023-02-08T13:54:47.448Z,33.03
2023-02-08T13:57:49.629Z,33.49
2023-02-08T14:03:37.232Z,32.76
2023-02-08T14:06:32.549Z,32.80
2023-02-08T14:09:43.987Z,33.61
2023-02-08T14:13:19.725Z,33.47
2023-02-08T14:15:47.845Z,34.75
2023-02-08T14:18:30.275Z,34.83
2023-02-08T14:22:01.234Z,34.40
2023-02-08T14:24:49.156Z,33.74
2023-02-08T14:27:59.815Z,33.68
2023-02-08T14:37:21.601Z,33.69
2023-02-08T14:39:50.521Z,34.71
2023-02-08T14:45:40.606Z,32.96
2023-02-08T14:52:43.641Z,34.82
2023-02-08T14:55:43.655Z,34.00
2023-02-08T14:58:45.218Z,34.32
2023-02-08T15:01:27.019Z,34.51
2023-02-08T15:04:09.114Z,34.08
2023-02-08T15:06:38.512Z,34.26
2023-02-08T15:09:39.466Z,34.51
2023-02-08T15:12:47.516Z,34.26
2023-02-08T15:15:34.182Z,33.42
2023-02-08T15:18:03.452Z,33.52
2023-02-08T15:27:04.545Z,33.30
2023-02-08T15:29:44.584Z,33.47
2023-02-08T15:32:44.522Z,34.26
2023-02-08T15:36:01.490Z,34.21
2023-02-08T15:39:11.438Z,35.97
2023-02-08T15:41:41.413Z,35.69
2023-02-08T15:44:18.558Z,36.35
2023-02-08T15:49:58.260Z,36.32
2023-02-08T15:53:15.639Z,35.55
2023-02-08T15:56:03.263Z,35.83
2023-02-08T15:58:40.968Z,35.07
2023-02-08T16:01:09.284Z,35.02
2023-02-08T16:03:42.651Z,35.06
2023-02-08T16:06:10.890Z,35.48
2023-02-08T16:08:49.876Z,35.32
2023-02-08T16:11:41.709Z,36.04
2023-02-08T16:14:52.669Z,36.49
2023-02-08T16:18:13.970Z,38.10
2023-02-08T16:21:21.777Z,36.37
2023-02-08T16:24:34.213Z,37.10
2023-02-08T16:30:58.196Z,38.59
2023-02-08T16:34:39.362Z,39.32
2023-02-08T16:41:14.824Z,42.69
2023-02-08T16:51:36.870Z,45.24
2023-02-08T17:00:29.418Z,47.35
2023-02-08T17:02:57.100Z,47.97
2023-02-08T17:06:06.790Z,48.77
2023-02-08T17:08:24.648Z,49.37
2023-02-08T17:10:52.794Z,49.52
2023-02-08T17:13:44.632Z,49.51
2023-02-08T17:16:52.493Z,49.56
2023-02-08T17:19:34.495Z,50.25
2023-02-08T17:25:29.914Z,51.02
2023-02-08T17:28:22.590Z,50.80
2023-02-08T17:31:01.031Z,50.92
2023-02-08T17:33:50.454Z,51.11
2023-02-08T17:36:23.344Z,52.03
2023-02-08T17:39:40.520Z,51.97
2023-02-08T17:42:07.413Z,52.75
2023-02-08T17:44:59.754Z,53.06
2023-02-08T17:47:28.372Z,53.31
2023-02-08T17:50:18.875Z,53.02
2023-02-08T17:53:05.770Z,53.56
2023-02-08T17:55:32.849Z,53.30
2023-02-08T17:57:59.414Z,54.46
2023-02-08T18:00:26.768Z,54.62
2023-02-08T18:02:55.734Z,54.96
2023-02-08T18:05:29.358Z,55.29
2023-02-08T18:08:05.478Z,54.97
2023-02-08T18:10:43.367Z,55.18
2023-02-08T18:13:16.273Z,55.24
2023-02-08T18:15:44.729Z,55.44
2023-02-08T18:18:20.045Z,55.67
2023-02-08T18:21:16.085Z,55.92
2023-02-08T18:23:58.758Z,56.52
2023-02-08T18:26:35.817Z,56.52
2023-02-08T18:29:03.835Z,56.76
2023-02-08T18:31:52.988Z,55.71
2023-02-08T18:34:19.866Z,54.89
2023-02-08T18:37:11.850Z,55.70
2023-02-08T18:39:49.509Z,56.51
2023-02-08T18:42:16.835Z,56.82
2023-02-08T18:44:49.962Z,56.92
2023-02-08T18:47:19.793Z,56.56
2023-02-08T18:50:02.629Z,56.07
2023-02-08T18:52:31.965Z,56.47
2023-02-08T18:55:23.752Z,55.86
2023-02-08T18:58:16.234Z,55.58
2023-02-08T19:00:43.109Z,54.45
2023-02-08T19:03:59.603Z,55.44
2023-02-08T19:06:36.311Z,54.54
2023-02-08T19:16:52.556Z,57.05
2023-02-08T19:19:55.931Z,57.67
2023-02-08T19:22:25.544Z,57.29
2023-02-08T19:25:20.176Z,57.60
2023-02-08T19:27:50.491Z,58.45
2023-02-08T19:31:25.431Z,58.70
2023-02-08T19:34:18.785Z,59.13
2023-02-08T19:37:04.458Z,59.85
2023-02-08T19:39:35.222Z,59.82
2023-02-08T19:42:37.253Z,59.92
2023-02-08T19:45:04.103Z,61.02
2023-02-08T19:47:51.967Z,59.97
2023-02-08T19:50:19.268Z,60.47
2023-02-08T19:52:56.822Z,60.99
2023-02-08T19:55:23.872Z,60.64
2023-02-08T19:57:51.245Z,60.64
2023-02-08T20:00:23.750Z,61.16
2023-02-08T20:03:12.983Z,61.53
2023-02-08T20:05:58.128Z,61.73
2023-02-08T20:08:41.699Z,61.77
2023-02-08T20:11:37.095Z,61.88
2023-02-08T20:14:21.927Z,62.78
2023-02-08T20:16:49.827Z,62.68
2023-02-08T20:19:19.706Z,62.62
2023-02-08T20:21:51.073Z,62.81
2023-02-08T20:24:20.930Z,62.96
2023-02-08T20:27:12.470Z,62.66
2023-02-08T20:29:44.952Z,63.39
2023-02-08T20:32:11.857Z,64.03
2023-02-08T20:34:42.643Z,63.90
2023-02-08T20:37:45.957Z,63.58
2023-02-08T20:40:24.085Z,64.17
2023-02-08T20:42:50.918Z,64.32
2023-02-08T20:45:17.561Z,64.59
2023-02-08T20:47:50.098Z,64.88
2023-02-08T20:50:19.649Z,64.51
2023-02-08T20:52:47.595Z,64.74
2023-02-08T20:55:14.232Z,64.79
2023-02-08T20:58:06.402Z,65.13
2023-02-08T21:00:42.738Z,65.26
2023-02-08T21:03:10.313Z,65.87
2023-02-08T21:05:36.843Z,66.41
2023-02-08T21:08:05.856Z,65.99
2023-02-08T21:10:39.838Z,66.12
2023-02-08T21:13:09.932Z,66.35
2023-02-08T21:15:45.896Z,66.85
2023-02-08T21:18:12.723Z,66.30
2023-02-08T21:20:42.395Z,66.89
2023-02-08T21:23:09.057Z,67.13
2023-02-08T21:25:44.254Z,67.56
2023-02-08T21:28:19.203Z,67.52
2023-02-08T21:30:55.528Z,67.63
2023-02-08T21:33:28.561Z,68.11
2023-02-08T21:36:22.869Z,67.76
2023-02-08T21:38:58.218Z,68.11
2023-02-08T21:41:29.764Z,68.09
2023-02-08T21:43:59.480Z,68.12
2023-02-08T21:46:32.339Z,68.44
2023-02-08T21:49:49.756Z,68.60
2023-02-08T21:52:54.154Z,68.23
2023-02-08T22:01:45.959Z,69.15
2023-02-08T22:04:12.589Z,69.76
2023-02-08T22:06:46.812Z,70.36
2023-02-08T22:09:13.855Z,69.93
2023-02-08T22:11:42.604Z,70.49
2023-02-08T22:14:10.804Z,70.49
2023-02-08T22:16:47.110Z,70.66
2023-02-08T22:19:14.358Z,70.64
2023-02-08T22:21:41.164Z,71.00
2023-02-08T22:24:10.685Z,70.73
2023-02-08T22:26:38.355Z,71.00
2023-02-08T22:29:08.020Z,70.84
2023-02-08T22:31:34.783Z,70.48
2023-02-08T22:34:01.633Z,70.35
2023-02-08T22:36:40.751Z,70.37
2023-02-08T22:39:07.263Z,70.31
2023-02-08T22:41:36.783Z,70.49
2023-02-08T22:46:45.225Z,70.86
2023-02-08T22:49:22.527Z,70.88
2023-02-08T22:51:49.119Z,70.91
2023-02-08T22:54:15.910Z,71.16
2023-02-08T22:56:42.424Z,71.78
2023-02-08T22:59:34.320Z,71.90
2023-02-08T23:02:01.600Z,71.35
2023-02-08T23:04:29.101Z,71.65
2023-02-08T23:06:56.112Z,71.54
2023-02-08T23:09:26.802Z,71.87
2023-02-08T23:11:53.390Z,71.52
2023-02-08T23:14:23.004Z,71.99
2023-02-08T23:16:52.704Z,71.74
2023-02-08T23:19:58.105Z,71.86
2023-02-08T23:22:27.794Z,72.40
2023-02-08T23:24:57.365Z,72.66
2023-02-08T23:27:49.423Z,72.94
2023-02-08T23:30:28.004Z,72.69
2023-02-08T23:32:54.672Z,73.11
2023-02-08T23:35:24.302Z,73.09
2023-02-08T23:37:50.973Z,73.04
2023-02-08T23:40:26.822Z,73.13
2023-02-08T23:42:53.497Z,73.45
2023-02-08T23:45:20.256Z,73.63
2023-02-08T23:47:56.018Z,73.10
2023-02-08T23:50:22.655Z,72.42
2023-02-08T23:53:04.847Z,71.74
2023-02-08T23:55:46.948Z,70.98
2023-02-08T23:58:39.187Z,70.27
